Aérodrome :
LOGIN :

S'inscrire | Disclaimer

   EN    FR    IT 

 










Légende :    VFR   VFR Marginal   IFR   IFR Intensif   IFR Très Intensif
Visi : 
Plafond : 
>= 8 km
>= 3000ft
5 à 8 km
1000 à 3000 ft
1500m à 5 km
500 à 1000 ft
800 à 1500m
200 à 500 ft
< 800m
< 200 ft
Symboles :   Orages  Brouillard  Fortes neiges  Fortes précipitations  Vent > 20 kt
SIGMETs :   Divers  Orages  Givrage  Turbulence  Onde Orograph.  Cendres Volcan.







- Altitude de l'aérodrome : 142 ft
- Code IATA : ALC


LEAL - Alicante

DERNIER METAR :
  • 161700Z 10006KT 070V160 9999 FEW025 28/23 Q1017 NOSIG

METARs EXPIRÉS :
  • 161630Z 10007KT 060V140 9999 FEW025 29/22 Q1017 NOSIG
  • 161600Z 11007KT 080V150 9999 FEW025 29/22 Q1017 NOSIG
  • 161530Z 10007KT 060V150 9999 FEW025 29/21 Q1017 NOSIG
  • 161500Z 10007KT 070V150 9999 FEW025 29/22 Q1017 NOSIG
  • 161430Z 10008KT 060V150 9999 FEW025 29/23 Q1017 NOSIG

TAF TAF LEAL
Valide du 16 à 12h jusqu'au 17 à 12h UTC


161100Z 1612/1712 15009KT 9999 FEW025 TX31/1612Z TN23/1705Z
TEMPO 1613/1618 10009KT
BECMG 1618/1620 VRB03KT
Pas de NOTAMs connus pour ce terrain.
1 SIGMET publié pour la FIR Barcelona (LECB) :
 
Orages noyés dans la masse
LECB SIGMET 1 VALID 161602/161800 LEVA
LECB BARCELONA FIR/UIR EMBD TS OBS AT 1602Z WI N4030 W001 - N4110 W00010 - N41 E00030 - N3940 W00030 - N3940 W001 - N4030 W001 TOP FL400 STNR NC=



MET'MAP, la Météo Aéronautique d'un coup d'oeil ! - Copyright ORBIFLY Décembre 2007 - Disclaimer

ORBIFLY MET'MAP TEAM :

Programmation & Développement : Alexandra Zaïnal
Conception & Développement : Baudouin d'Aumeries
Co-Programmation & Développement : Marc-Olivier Méhu
Soutien technique & logistique : Manuel Goepfert

Contact : metmap@orbifly.com




SOURCES & CREDITS :

   NOAA